Aérodrome :
LOGIN :

S'inscrire | Disclaimer

   EN    FR    IT 

 










Légende :    VFR   VFR Marginal   IFR   IFR Intensif   IFR Très Intensif
Visi : 
Plafond : 
>= 8 km
>= 3000ft
5 à 8 km
1000 à 3000 ft
1500m à 5 km
500 à 1000 ft
800 à 1500m
200 à 500 ft
< 800m
< 200 ft
Symboles :   Orages  Brouillard  Fortes neiges  Fortes précipitations  Vent > 20 kt
SIGMETs :   Divers  Orages  Givrage  Turbulence  Onde Orograph.  Cendres Volcan.







- Altitude de l'aérodrome : 870 ft
- Code IATA : ETZ
- Voir les cartes d'approche


LFJL - Metz Nancy Lorraine

DERNIER METAR :
  • 231600Z AUTO 24012KT 9999 NCD 21/09 Q1016 BECMG 18005KT

METARs EXPIRÉS :
  • 231530Z AUTO 24014KT 9999 NCD 21/09 Q1016 BECMG 18005KT
  • 231500Z AUTO 24014KT 9999 NCD 20/08 Q1017 NOSIG
  • 231430Z AUTO 23016KT 9999 NCD 22/08 Q1017 NOSIG
  • 231400Z AUTO 23018KT 9999 NCD 20/08 Q1017 NOSIG
  • 231330Z AUTO 24021KT 9999 NCD 20/08 Q1017 NOSIG

TAF TAF LFJL
Valide du 23 à 12h jusqu'au 24 à 12h UTC


231100Z 2312/2412 24015KT 9999 SCT040 BKN060
BECMG 2317/2320 18005KT
BECMG 2322/2401 4000 RA BKN012 BKN020
TEMPO 2401/2407 2500 BKN008 SCT020TCU
BECMG 2407/2409 30010KT 9999 NSW SCT020 BKN040
Pas de NOTAMs connus pour ce terrain.



MET'MAP, la Météo Aéronautique d'un coup d'oeil ! - Copyright ORBIFLY Décembre 2007 - Disclaimer

ORBIFLY MET'MAP TEAM :

Programmation & Développement : Alexandra Zaïnal
Conception & Développement : Baudouin d'Aumeries
Co-Programmation & Développement : Marc-Olivier Méhu
Soutien technique & logistique : Manuel Goepfert

Contact : metmap@orbifly.com




SOURCES & CREDITS :

   NOAA